DAL8976 SBGL-SBPS
Flight info
| Callsign | DAL8976 |
|---|---|
| Flight time | 1h 10m |
| Altitude | 41000 |
| Route | IMBAP UZ42 SIRAP DCT OSUNO |
| Aircraft | A359/H-SDE2E3GHIJ3J4J5LM1ORWXY/LB1D1 |
Departure
| Time | 2026-05-01 13:41 |
|---|---|
| Airport | Rio Galeão – Tom Jobim International Airport (SBGL) |
Arrival
| Time | 2026-05-01 14:51 |
|---|---|
| Airport | Porto Seguro International Airport (SBPS) |
| Time | Latitude | Longitude | Altitude | Speed | Heading |
|---|---|---|---|---|---|
| 2026-05-01 13:23 | -22.81630 | -43.24622 | 28 ft | 0 kts | 357° |
| 2026-05-01 13:33 | -22.81647 | -43.24630 | 28 ft | 3 kts | 43° |
| 2026-05-01 13:34 | -22.81677 | -43.24646 | 25 ft | 3 kts | 347° |
| 2026-05-01 13:34 | -22.81704 | -43.24620 | 25 ft | 2 kts | 305° |
| 2026-05-01 13:35 | -22.81707 | -43.24615 | 27 ft | 0 kts | 306° |
| 2026-05-01 13:36 | -22.81662 | -43.24684 | 27 ft | 23 kts | 305° |
| 2026-05-01 13:37 | -22.81566 | -43.24832 | 28 ft | 25 kts | 307° |
| 2026-05-01 13:37 | -22.81463 | -43.24994 | 28 ft | 27 kts | 302° |
| 2026-05-01 13:37 | -22.81357 | -43.25159 | 28 ft | 27 kts | 308° |
| 2026-05-01 13:37 | -22.81232 | -43.25316 | 28 ft | 27 kts | 320° |
| 2026-05-01 13:38 | -22.80976 | -43.25401 | 28 ft | 19 kts | 326° |
| 2026-05-01 13:38 | -22.80914 | -43.25511 | 34 ft | 17 kts | 295° |
| 2026-05-01 13:38 | -22.80814 | -43.25567 | 28 ft | 20 kts | 15° |
| 2026-05-01 13:39 | -22.80690 | -43.25483 | 28 ft | 22 kts | 34° |
| 2026-05-01 13:39 | -22.80578 | -43.25388 | 37 ft | 19 kts | 26° |
| 2026-05-01 13:39 | -22.80453 | -43.25414 | 35 ft | 17 kts | 334° |
| 2026-05-01 13:39 | -22.80347 | -43.25486 | 34 ft | 19 kts | 328° |
| 2026-05-01 13:40 | -22.80212 | -43.25482 | 31 ft | 21 kts | 27° |
| 2026-05-01 13:40 | -22.80138 | -43.25321 | 31 ft | 44 kts | 73° |
| 2026-05-01 13:40 | -22.79955 | -43.24614 | 39 ft | 148 kts | 74° |
| 2026-05-01 13:40 | -22.79597 | -43.23263 | 326 ft | 215 kts | 74° |
| 2026-05-01 13:41 | -22.79146 | -43.21554 | 1164 ft | 252 kts | 77° |
| 2026-05-01 13:41 | -22.78774 | -43.19659 | 2380 ft | 252 kts | 78° |
| 2026-05-01 13:41 | -22.78427 | -43.17850 | 3285 ft | 246 kts | 78° |
| 2026-05-01 13:41 | -22.78062 | -43.16034 | 3989 ft | 248 kts | 77° |
| 2026-05-01 13:42 | -22.77679 | -43.14203 | 4662 ft | 251 kts | 77° |
| 2026-05-01 13:42 | -22.77282 | -43.12351 | 5310 ft | 253 kts | 76° |
| 2026-05-01 13:42 | -22.76877 | -43.10486 | 5934 ft | 256 kts | 76° |
| 2026-05-01 13:42 | -22.76464 | -43.08595 | 6563 ft | 259 kts | 76° |
| 2026-05-01 13:43 | -22.76045 | -43.06690 | 7170 ft | 261 kts | 76° |
| 2026-05-01 13:43 | -22.75500 | -43.04808 | 7818 ft | 265 kts | 64° |
| 2026-05-01 13:43 | -22.74400 | -43.03210 | 8562 ft | 267 kts | 40° |
| 2026-05-01 13:43 | -22.72765 | -43.02250 | 9477 ft | 270 kts | 19° |
| 2026-05-01 13:44 | -22.70931 | -43.01723 | 10242 ft | 277 kts | 14° |
| 2026-05-01 13:44 | -22.69028 | -43.01266 | 10809 ft | 282 kts | 13° |
| 2026-05-01 13:44 | -22.67100 | -43.00808 | 11321 ft | 285 kts | 13° |
| 2026-05-01 13:44 | -22.65180 | -43.00349 | 11855 ft | 288 kts | 13° |
| 2026-05-01 13:45 | -22.63212 | -42.99869 | 12366 ft | 291 kts | 12° |
| 2026-05-01 13:45 | -22.61225 | -42.99381 | 12875 ft | 295 kts | 12° |
| 2026-05-01 13:45 | -22.59209 | -42.98884 | 13390 ft | 298 kts | 12° |
| 2026-05-01 13:45 | -22.57177 | -42.98381 | 13912 ft | 301 kts | 12° |
| 2026-05-01 13:46 | -22.55123 | -42.97874 | 14376 ft | 304 kts | 12° |
| 2026-05-01 13:46 | -22.53053 | -42.97361 | 14842 ft | 307 kts | 12° |
| 2026-05-01 13:46 | -22.50958 | -42.96842 | 15293 ft | 309 kts | 11° |
| 2026-05-01 13:46 | -22.48872 | -42.96328 | 15711 ft | 312 kts | 11° |
| 2026-05-01 13:47 | -22.46740 | -42.95806 | 16173 ft | 316 kts | 11° |
| 2026-05-01 13:47 | -22.44558 | -42.95265 | 16377 ft | 328 kts | 11° |
| 2026-05-01 13:47 | -22.42290 | -42.94704 | 16563 ft | 340 kts | 11° |
| 2026-05-01 13:47 | -22.39945 | -42.94124 | 16741 ft | 352 kts | 11° |
| 2026-05-01 13:48 | -22.37524 | -42.93523 | 16923 ft | 362 kts | 11° |
| 2026-05-01 13:48 | -22.35028 | -42.92906 | 17100 ft | 372 kts | 11° |
| 2026-05-01 13:48 | -22.32448 | -42.92445 | 17297 ft | 378 kts | 1° |
| 2026-05-01 13:48 | -22.29825 | -42.92633 | 17644 ft | 379 kts | 350° |
| 2026-05-01 13:49 | -22.27209 | -42.93058 | 18009 ft | 381 kts | 349° |
| 2026-05-01 13:49 | -22.24579 | -42.93507 | 18187 ft | 383 kts | 349° |
| 2026-05-01 13:49 | -22.21942 | -42.93952 | 18206 ft | 384 kts | 349° |
| 2026-05-01 13:49 | -22.19301 | -42.94345 | 18214 ft | 386 kts | 353° |
| 2026-05-01 13:50 | -22.16604 | -42.94278 | 18201 ft | 389 kts | 6° |
| 2026-05-01 13:50 | -22.13991 | -42.93476 | 18261 ft | 394 kts | 22° |
| 2026-05-01 13:50 | -22.11580 | -42.92032 | 18627 ft | 397 kts | 31° |
| 2026-05-01 13:50 | -22.09251 | -42.90420 | 18988 ft | 398 kts | 31° |
| 2026-05-01 13:51 | -22.06923 | -42.88791 | 19332 ft | 400 kts | 31° |
| 2026-05-01 13:51 | -22.04580 | -42.87157 | 19658 ft | 401 kts | 31° |
| 2026-05-01 13:51 | -22.02231 | -42.85524 | 19986 ft | 403 kts | 31° |
| 2026-05-01 13:51 | -21.99866 | -42.83884 | 20308 ft | 405 kts | 31° |
| 2026-05-01 13:52 | -21.97495 | -42.82242 | 20638 ft | 406 kts | 31° |
| 2026-05-01 13:52 | -21.95104 | -42.80588 | 20969 ft | 408 kts | 31° |
| 2026-05-01 13:52 | -21.92741 | -42.78954 | 21283 ft | 410 kts | 31° |
| 2026-05-01 13:52 | -21.90335 | -42.77293 | 21586 ft | 412 kts | 31° |
| 2026-05-01 13:53 | -21.87912 | -42.75619 | 21911 ft | 414 kts | 31° |
| 2026-05-01 13:53 | -21.83042 | -42.72259 | 22517 ft | 417 kts | 31° |
| 2026-05-01 13:53 | -21.80587 | -42.70565 | 22832 ft | 419 kts | 31° |
| 2026-05-01 13:54 | -21.78123 | -42.68867 | 23131 ft | 421 kts | 31° |
| 2026-05-01 13:54 | -21.75651 | -42.67164 | 23435 ft | 423 kts | 31° |
| 2026-05-01 13:54 | -21.73164 | -42.65451 | 23727 ft | 425 kts | 31° |
| 2026-05-01 13:54 | -21.70669 | -42.63733 | 23984 ft | 427 kts | 31° |
| 2026-05-01 13:55 | -21.68160 | -42.62006 | 24262 ft | 429 kts | 31° |
| 2026-05-01 13:55 | -21.65640 | -42.60273 | 24501 ft | 431 kts | 31° |
| 2026-05-01 13:55 | -21.63139 | -42.58554 | 24736 ft | 433 kts | 31° |
| 2026-05-01 13:55 | -21.60553 | -42.56869 | 24973 ft | 434 kts | 27° |
| 2026-05-01 13:56 | -21.57895 | -42.55313 | 25223 ft | 436 kts | 26° |
| 2026-05-01 13:56 | -21.55192 | -42.53808 | 25486 ft | 438 kts | 25° |
| 2026-05-01 13:56 | -21.52470 | -42.52308 | 25729 ft | 439 kts | 25° |
| 2026-05-01 13:56 | -21.49747 | -42.50796 | 25974 ft | 442 kts | 25° |
| 2026-05-01 13:57 | -21.47023 | -42.49262 | 26221 ft | 444 kts | 26° |
| 2026-05-01 13:57 | -21.45215 | -42.48235 | 26396 ft | 445 kts | 26° |
| 2026-05-01 13:57 | -21.41586 | -42.46156 | 26729 ft | 447 kts | 26° |
| 2026-05-01 13:57 | -21.38839 | -42.44573 | 26973 ft | 449 kts | 26° |
| 2026-05-01 13:58 | -21.36086 | -42.42987 | 27226 ft | 451 kts | 26° |
| 2026-05-01 13:58 | -21.33302 | -42.41384 | 27495 ft | 453 kts | 26° |
| 2026-05-01 13:58 | -21.30521 | -42.39780 | 27738 ft | 456 kts | 26° |
| 2026-05-01 13:58 | -21.27710 | -42.38163 | 27994 ft | 458 kts | 26° |
| 2026-05-01 13:59 | -21.24897 | -42.36548 | 28266 ft | 460 kts | 26° |
| 2026-05-01 13:59 | -21.22065 | -42.34925 | 28544 ft | 462 kts | 26° |
| 2026-05-01 13:59 | -21.19224 | -42.33296 | 28819 ft | 464 kts | 26° |
| 2026-05-01 13:59 | -21.16371 | -42.31661 | 29097 ft | 466 kts | 26° |
| 2026-05-01 14:00 | -21.13499 | -42.30015 | 29361 ft | 469 kts | 26° |
| 2026-05-01 14:00 | -21.10615 | -42.28363 | 29643 ft | 471 kts | 26° |
| 2026-05-01 14:00 | -21.07713 | -42.26702 | 29933 ft | 473 kts | 26° |
| 2026-05-01 14:00 | -21.04805 | -42.25037 | 30263 ft | 475 kts | 26° |
| 2026-05-01 14:01 | -21.01877 | -42.23362 | 30522 ft | 477 kts | 26° |
| 2026-05-01 14:01 | -20.98943 | -42.21684 | 30784 ft | 480 kts | 26° |
| 2026-05-01 14:01 | -20.95989 | -42.19995 | 31062 ft | 482 kts | 26° |
| 2026-05-01 14:01 | -20.93021 | -42.18303 | 31325 ft | 484 kts | 26° |
| 2026-05-01 14:02 | -20.90087 | -42.16629 | 31606 ft | 486 kts | 26° |
| 2026-05-01 14:02 | -20.87092 | -42.14919 | 31874 ft | 488 kts | 26° |
| 2026-05-01 14:02 | -20.84048 | -42.13181 | 32133 ft | 490 kts | 26° |
| 2026-05-01 14:02 | -20.81037 | -42.11461 | 32422 ft | 492 kts | 26° |
| 2026-05-01 14:03 | -20.78072 | -42.09770 | 32684 ft | 494 kts | 27° |
| 2026-05-01 14:03 | -20.75008 | -42.08026 | 32946 ft | 496 kts | 26° |
| 2026-05-01 14:03 | -20.71955 | -42.06287 | 33199 ft | 498 kts | 26° |
| 2026-05-01 14:03 | -20.68889 | -42.04542 | 33461 ft | 500 kts | 26° |
| 2026-05-01 14:04 | -20.65813 | -42.02792 | 33732 ft | 502 kts | 27° |
| 2026-05-01 14:04 | -20.62715 | -42.01029 | 33995 ft | 504 kts | 27° |
| 2026-05-01 14:04 | -20.59656 | -41.99202 | 34293 ft | 505 kts | 30° |
| 2026-05-01 14:04 | -20.57684 | -41.97881 | 34463 ft | 507 kts | 31° |
| 2026-05-01 14:05 | -20.53694 | -41.95157 | 34729 ft | 510 kts | 31° |
| 2026-05-01 14:05 | -20.50699 | -41.93134 | 35064 ft | 509 kts | 31° |
| 2026-05-01 14:05 | -20.47711 | -41.91129 | 35442 ft | 507 kts | 31° |
| 2026-05-01 14:05 | -20.44730 | -41.89140 | 35812 ft | 505 kts | 30° |
| 2026-05-01 14:06 | -20.41750 | -41.87158 | 36165 ft | 504 kts | 30° |
| 2026-05-01 14:06 | -20.38782 | -41.85187 | 36557 ft | 502 kts | 30° |
| 2026-05-01 14:06 | -20.35822 | -41.83224 | 36947 ft | 500 kts | 30° |
| 2026-05-01 14:06 | -20.32866 | -41.81265 | 37289 ft | 500 kts | 30° |
| 2026-05-01 14:07 | -20.29914 | -41.79308 | 37638 ft | 499 kts | 30° |
| 2026-05-01 14:07 | -20.27003 | -41.77382 | 37988 ft | 498 kts | 30° |
| 2026-05-01 14:07 | -20.24056 | -41.75434 | 38302 ft | 498 kts | 30° |
| 2026-05-01 14:08 | -20.18173 | -41.71547 | 38974 ft | 496 kts | 30° |
| 2026-05-01 14:08 | -20.15244 | -41.69612 | 39263 ft | 495 kts | 30° |
| 2026-05-01 14:08 | -20.12321 | -41.67682 | 39515 ft | 494 kts | 30° |
| 2026-05-01 14:08 | -20.09397 | -41.65753 | 39756 ft | 494 kts | 30° |
| 2026-05-01 14:09 | -20.06472 | -41.63824 | 40012 ft | 493 kts | 30° |
| 2026-05-01 14:09 | -20.03557 | -41.61902 | 40263 ft | 492 kts | 30° |
| 2026-05-01 14:09 | -20.00649 | -41.59985 | 40517 ft | 492 kts | 30° |
| 2026-05-01 14:09 | -19.97744 | -41.58072 | 40739 ft | 491 kts | 30° |
| 2026-05-01 14:10 | -19.94835 | -41.56156 | 40960 ft | 490 kts | 30° |
| 2026-05-01 14:10 | -19.91966 | -41.54269 | 41130 ft | 491 kts | 30° |
| 2026-05-01 14:10 | -19.89052 | -41.52352 | 41159 ft | 495 kts | 30° |
| 2026-05-01 14:11 | -19.83140 | -41.48466 | 41160 ft | 503 kts | 30° |
| 2026-05-01 14:11 | -19.74214 | -41.42605 | 41155 ft | 502 kts | 30° |
| 2026-05-01 14:12 | -19.68271 | -41.38707 | 41158 ft | 502 kts | 30° |
| 2026-05-01 14:12 | -19.63331 | -41.35468 | 41155 ft | 502 kts | 30° |
| 2026-05-01 14:13 | -19.57386 | -41.31575 | 41157 ft | 502 kts | 30° |
| 2026-05-01 14:13 | -19.50473 | -41.27052 | 41156 ft | 502 kts | 30° |
| 2026-05-01 14:14 | -19.45492 | -41.23795 | 41156 ft | 502 kts | 30° |
| 2026-05-01 14:14 | -19.39539 | -41.19908 | 41157 ft | 502 kts | 30° |
| 2026-05-01 14:15 | -19.33622 | -41.16047 | 41154 ft | 502 kts | 30° |
| 2026-05-01 14:15 | -19.27684 | -41.12175 | 41159 ft | 501 kts | 30° |
| 2026-05-01 14:16 | -19.21747 | -41.08307 | 41155 ft | 500 kts | 30° |
| 2026-05-01 14:16 | -19.15819 | -41.04448 | 41156 ft | 500 kts | 30° |
| 2026-05-01 14:17 | -19.09888 | -41.00591 | 41156 ft | 500 kts | 31° |
| 2026-05-01 14:17 | -19.03967 | -40.96743 | 41157 ft | 499 kts | 31° |
| 2026-05-01 14:18 | -18.98091 | -40.92929 | 41157 ft | 499 kts | 31° |
| 2026-05-01 14:18 | -18.92170 | -40.89088 | 41157 ft | 499 kts | 31° |
| 2026-05-01 14:19 | -18.86269 | -40.85262 | 41152 ft | 499 kts | 31° |
| 2026-05-01 14:19 | -18.80336 | -40.81420 | 41150 ft | 498 kts | 31° |
| 2026-05-01 14:20 | -18.71473 | -40.75686 | 41151 ft | 498 kts | 31° |
| 2026-05-01 14:21 | -18.65558 | -40.71864 | 41145 ft | 498 kts | 31° |
| 2026-05-01 14:21 | -18.59692 | -40.68076 | 41148 ft | 498 kts | 31° |
| 2026-05-01 14:22 | -18.50803 | -40.62342 | 41143 ft | 498 kts | 31° |
| 2026-05-01 14:22 | -18.44880 | -40.58525 | 41141 ft | 498 kts | 31° |
| 2026-05-01 14:23 | -18.38967 | -40.54717 | 41138 ft | 498 kts | 31° |
| 2026-05-01 14:23 | -18.33069 | -40.50923 | 41017 ft | 489 kts | 31° |
| 2026-05-01 14:24 | -18.30175 | -40.49062 | 40407 ft | 488 kts | 31° |
| 2026-05-01 14:24 | -18.27302 | -40.47215 | 39573 ft | 493 kts | 31° |
| 2026-05-01 14:24 | -18.24355 | -40.45323 | 38809 ft | 496 kts | 32° |
| 2026-05-01 14:24 | -18.21398 | -40.43424 | 37904 ft | 499 kts | 32° |
| 2026-05-01 14:25 | -18.18430 | -40.41518 | 37184 ft | 499 kts | 32° |
| 2026-05-01 14:25 | -18.15471 | -40.39620 | 36504 ft | 498 kts | 32° |
| 2026-05-01 14:25 | -18.12515 | -40.37724 | 35819 ft | 497 kts | 32° |
| 2026-05-01 14:25 | -18.09553 | -40.35825 | 35112 ft | 498 kts | 32° |
| 2026-05-01 14:26 | -18.06599 | -40.33932 | 34553 ft | 495 kts | 32° |
| 2026-05-01 14:26 | -18.00784 | -40.30207 | 33454 ft | 489 kts | 32° |
| 2026-05-01 14:26 | -17.97891 | -40.28355 | 32931 ft | 485 kts | 32° |
| 2026-05-01 14:27 | -17.95022 | -40.26518 | 32398 ft | 480 kts | 32° |
| 2026-05-01 14:27 | -17.92173 | -40.24696 | 31877 ft | 477 kts | 32° |
| 2026-05-01 14:27 | -17.89352 | -40.22892 | 31360 ft | 473 kts | 32° |
| 2026-05-01 14:28 | -17.83770 | -40.19324 | 30356 ft | 467 kts | 32° |
| 2026-05-01 14:28 | -17.81002 | -40.17557 | 29817 ft | 464 kts | 32° |
| 2026-05-01 14:28 | -17.78256 | -40.15804 | 29280 ft | 459 kts | 32° |
| 2026-05-01 14:28 | -17.75540 | -40.14070 | 28774 ft | 455 kts | 33° |
| 2026-05-01 14:29 | -17.72851 | -40.12355 | 28271 ft | 450 kts | 32° |
| 2026-05-01 14:29 | -17.70193 | -40.10659 | 27778 ft | 446 kts | 33° |
| 2026-05-01 14:30 | -17.62375 | -40.05677 | 26301 ft | 434 kts | 33° |
| 2026-05-01 14:30 | -17.59794 | -40.04033 | 25806 ft | 430 kts | 33° |
| 2026-05-01 14:30 | -17.57257 | -40.02417 | 25316 ft | 427 kts | 33° |
| 2026-05-01 14:31 | -17.52199 | -39.99198 | 24309 ft | 421 kts | 33° |
| 2026-05-01 14:31 | -17.49700 | -39.97608 | 23831 ft | 418 kts | 32° |
| 2026-05-01 14:31 | -17.47220 | -39.96031 | 23281 ft | 415 kts | 33° |
| 2026-05-01 14:31 | -17.44769 | -39.94474 | 22775 ft | 410 kts | 32° |
| 2026-05-01 14:32 | -17.42341 | -39.92939 | 22243 ft | 406 kts | 32° |
| 2026-05-01 14:32 | -17.39846 | -39.91552 | 21625 ft | 405 kts | 28° |
| 2026-05-01 14:32 | -17.37329 | -39.90231 | 21106 ft | 402 kts | 28° |
| 2026-05-01 14:32 | -17.34891 | -39.88944 | 20625 ft | 398 kts | 28° |
| 2026-05-01 14:33 | -17.32423 | -39.87627 | 20139 ft | 394 kts | 28° |
| 2026-05-01 14:33 | -17.29993 | -39.86323 | 19658 ft | 390 kts | 28° |
| 2026-05-01 14:33 | -17.27589 | -39.85028 | 19186 ft | 386 kts | 29° |
| 2026-05-01 14:33 | -17.25217 | -39.83749 | 18713 ft | 382 kts | 29° |
| 2026-05-01 14:34 | -17.22860 | -39.82477 | 18216 ft | 379 kts | 29° |
| 2026-05-01 14:34 | -17.20533 | -39.81220 | 17717 ft | 374 kts | 29° |
| 2026-05-01 14:34 | -17.18235 | -39.79979 | 17261 ft | 369 kts | 29° |
| 2026-05-01 14:34 | -17.15969 | -39.78756 | 16803 ft | 364 kts | 29° |
| 2026-05-01 14:35 | -17.13758 | -39.77561 | 16349 ft | 359 kts | 29° |
| 2026-05-01 14:35 | -17.11523 | -39.76354 | 15896 ft | 355 kts | 29° |
| 2026-05-01 14:35 | -17.09343 | -39.75177 | 15458 ft | 351 kts | 29° |
| 2026-05-01 14:35 | -17.07186 | -39.74013 | 14999 ft | 347 kts | 30° |
| 2026-05-01 14:36 | -17.05080 | -39.72878 | 14576 ft | 343 kts | 29° |
| 2026-05-01 14:36 | -17.02967 | -39.71738 | 14142 ft | 339 kts | 30° |
| 2026-05-01 14:36 | -17.00898 | -39.70581 | 13668 ft | 335 kts | 33° |
| 2026-05-01 14:36 | -16.98919 | -39.69323 | 13222 ft | 330 kts | 34° |
| 2026-05-01 14:37 | -16.96983 | -39.68071 | 12816 ft | 325 kts | 34° |
| 2026-05-01 14:37 | -16.95071 | -39.66845 | 12383 ft | 320 kts | 33° |
| 2026-05-01 14:37 | -16.93179 | -39.65644 | 11966 ft | 315 kts | 33° |
| 2026-05-01 14:37 | -16.91316 | -39.64463 | 11566 ft | 311 kts | 33° |
| 2026-05-01 14:38 | -16.89470 | -39.63299 | 11169 ft | 309 kts | 33° |
| 2026-05-01 14:38 | -16.87644 | -39.62152 | 10933 ft | 300 kts | 33° |
| 2026-05-01 14:38 | -16.85890 | -39.61052 | 10825 ft | 288 kts | 33° |
| 2026-05-01 14:38 | -16.84207 | -39.59998 | 10714 ft | 276 kts | 33° |
| 2026-05-01 14:39 | -16.82588 | -39.58983 | 10519 ft | 270 kts | 33° |
| 2026-05-01 14:39 | -16.80996 | -39.57981 | 10203 ft | 271 kts | 33° |
| 2026-05-01 14:39 | -16.79353 | -39.56946 | 9861 ft | 272 kts | 33° |
| 2026-05-01 14:39 | -16.77750 | -39.55941 | 9553 ft | 270 kts | 33° |
| 2026-05-01 14:40 | -16.76126 | -39.54924 | 9255 ft | 270 kts | 33° |
| 2026-05-01 14:40 | -16.74538 | -39.53925 | 8938 ft | 269 kts | 33° |
| 2026-05-01 14:40 | -16.72987 | -39.52804 | 8613 ft | 267 kts | 38° |
| 2026-05-01 14:40 | -16.71524 | -39.51652 | 8330 ft | 267 kts | 39° |
| 2026-05-01 14:41 | -16.70049 | -39.50481 | 8035 ft | 266 kts | 39° |
| 2026-05-01 14:41 | -16.68580 | -39.49316 | 7748 ft | 265 kts | 39° |
| 2026-05-01 14:41 | -16.67119 | -39.48159 | 7436 ft | 261 kts | 39° |
| 2026-05-01 14:41 | -16.65685 | -39.47025 | 7150 ft | 256 kts | 40° |
| 2026-05-01 14:42 | -16.64268 | -39.45905 | 6855 ft | 252 kts | 40° |
| 2026-05-01 14:42 | -16.62876 | -39.44803 | 6587 ft | 249 kts | 40° |
| 2026-05-01 14:42 | -16.61508 | -39.43720 | 6281 ft | 245 kts | 40° |
| 2026-05-01 14:42 | -16.60163 | -39.42657 | 6008 ft | 240 kts | 40° |
| 2026-05-01 14:43 | -16.58841 | -39.41613 | 5739 ft | 237 kts | 40° |
| 2026-05-01 14:43 | -16.57532 | -39.40579 | 5470 ft | 234 kts | 40° |
| 2026-05-01 14:43 | -16.56238 | -39.39557 | 5181 ft | 231 kts | 40° |
| 2026-05-01 14:43 | -16.54966 | -39.38553 | 4927 ft | 228 kts | 41° |
| 2026-05-01 14:44 | -16.53714 | -39.37561 | 4725 ft | 229 kts | 40° |
| 2026-05-01 14:44 | -16.51359 | -39.35342 | 4307 ft | 225 kts | 60° |
| 2026-05-01 14:44 | -16.50747 | -39.33874 | 3982 ft | 221 kts | 75° |
| 2026-05-01 14:45 | -16.50330 | -39.32338 | 3715 ft | 216 kts | 77° |
| 2026-05-01 14:45 | -16.49565 | -39.29387 | 3339 ft | 202 kts | 77° |
| 2026-05-01 14:45 | -16.49199 | -39.28010 | 3232 ft | 194 kts | 77° |
| 2026-05-01 14:46 | -16.48842 | -39.26657 | 3153 ft | 191 kts | 77° |
| 2026-05-01 14:46 | -16.48159 | -39.24101 | 2966 ft | 182 kts | 77° |
| 2026-05-01 14:46 | -16.47833 | -39.22893 | 2867 ft | 170 kts | 77° |
| 2026-05-01 14:47 | -16.47516 | -39.21714 | 2646 ft | 169 kts | 77° |
| 2026-05-01 14:47 | -16.47203 | -39.20542 | 2415 ft | 163 kts | 77° |
| 2026-05-01 14:47 | -16.46909 | -39.19456 | 2254 ft | 151 kts | 76° |
| 2026-05-01 14:48 | -16.46369 | -39.17456 | 2102 ft | 132 kts | 77° |
| 2026-05-01 14:48 | -16.46128 | -39.16563 | 1864 ft | 127 kts | 76° |
| 2026-05-01 14:48 | -16.45638 | -39.14801 | 1302 ft | 122 kts | 77° |
| 2026-05-01 14:49 | -16.45195 | -39.13099 | 1009 ft | 124 kts | 77° |
| 2026-05-01 14:49 | -16.44746 | -39.11374 | 638 ft | 126 kts | 76° |
| 2026-05-01 14:50 | -16.44410 | -39.10193 | 403 ft | 130 kts | 76° |
| 2026-05-01 14:50 | -16.43807 | -39.07927 | 176 ft | 91 kts | 74° |
| 2026-05-01 14:51 | -16.43700 | -39.07527 | 175 ft | 37 kts | 73° |
| 2026-05-01 14:51 | -16.43632 | -39.07218 | 169 ft | 5 kts | 12° |
| 2026-05-01 14:52 | -16.43646 | -39.07350 | 173 ft | 19 kts | 253° |
| 2026-05-01 14:52 | -16.43686 | -39.07490 | 175 ft | 21 kts | 253° |